createdAt,value
2018-06-25T00:02:40.779Z,79.21
2018-06-25T00:07:33.743Z,78.83
2018-06-25T00:12:26.741Z,78.69
2018-06-25T00:17:19.783Z,79.24
2018-06-25T00:22:12.751Z,79.22
2018-06-25T00:27:05.773Z,79.02
2018-06-25T00:31:58.772Z,79.41
2018-06-25T00:36:51.737Z,79.04
2018-06-25T00:41:44.832Z,79.58
2018-06-25T00:46:37.815Z,78.99
2018-06-25T00:51:30.869Z,78.85
2018-06-25T00:56:23.906Z,79.50
2018-06-25T01:01:16.867Z,79.45
2018-06-25T01:06:09.950Z,79.29
2018-06-25T01:11:03.019Z,79.29
2018-06-25T01:15:55.979Z,79.10
2018-06-25T01:20:49.052Z,79.76
2018-06-25T01:25:42.074Z,79.28
2018-06-25T01:30:35.026Z,79.72
2018-06-25T01:35:28.055Z,79.70
2018-06-25T01:40:21.019Z,79.57
2018-06-25T01:45:13.966Z,79.86
2018-06-25T01:50:06.985Z,80.40
2018-06-25T01:54:59.990Z,79.67
2018-06-25T01:59:52.909Z,79.58
2018-06-25T02:04:45.970Z,79.84
2018-06-25T02:09:39.007Z,80.77
2018-06-25T02:14:32.040Z,80.51
2018-06-25T02:19:25.104Z,80.63
2018-06-25T02:24:18.130Z,80.35
2018-06-25T02:29:11.171Z,79.95
2018-06-25T02:34:04.927Z,80.39
2018-06-25T02:38:57.964Z,80.37
2018-06-25T02:43:50.891Z,80.29
2018-06-25T02:48:43.836Z,80.41
2018-06-25T02:53:36.831Z,80.32
2018-06-25T02:58:29.811Z,80.15
2018-06-25T03:03:22.716Z,79.65
2018-06-25T03:08:15.706Z,79.61
2018-06-25T03:13:08.784Z,80.56
2018-06-25T03:18:01.929Z,80.15
2018-06-25T03:22:54.954Z,79.99
2018-06-25T03:27:48.100Z,80.04
2018-06-25T03:32:41.100Z,80.41
2018-06-25T03:37:34.119Z,79.72
2018-06-25T03:42:27.394Z,79.94
2018-06-25T03:47:20.527Z,79.67
2018-06-25T03:52:13.451Z,79.72
2018-06-25T03:57:06.500Z,79.88
2018-06-25T04:01:59.638Z,80.01
2018-06-25T04:06:52.639Z,79.72
2018-06-25T04:11:45.679Z,79.94
2018-06-25T04:16:38.781Z,80.30
2018-06-25T04:21:32.848Z,79.63
2018-06-25T04:26:25.824Z,79.55
2018-06-25T04:31:18.895Z,79.26
2018-06-25T04:36:11.904Z,79.59
2018-06-25T04:41:05.044Z,79.58
2018-06-25T04:45:58.076Z,79.22
2018-06-25T04:50:51.213Z,78.88
2018-06-25T04:55:44.208Z,79.74
2018-06-25T05:00:37.358Z,79.05
2018-06-25T05:05:30.385Z,78.98
2018-06-25T05:10:23.378Z,79.04
2018-06-25T05:15:16.418Z,79.04
2018-06-25T05:20:09.524Z,79.09
2018-06-25T05:25:02.569Z,79.31
2018-06-25T05:29:55.754Z,79.84
2018-06-25T05:34:48.870Z,78.55
2018-06-25T05:39:41.995Z,79.18
2018-06-25T05:44:35.005Z,78.85
2018-06-25T05:49:27.992Z,79.86
2018-06-25T05:54:21.155Z,79.54
2018-06-25T05:59:14.110Z,79.46
2018-06-25T06:04:07.170Z,80.25
2018-06-25T06:09:00.362Z,79.70
2018-06-25T06:13:53.379Z,79.62
2018-06-25T06:18:46.589Z,79.25
2018-06-25T06:23:39.642Z,79.25
2018-06-25T06:28:32.643Z,79.58
2018-06-25T06:33:25.701Z,80.23
2018-06-25T06:38:18.708Z,80.10
2018-06-25T06:43:11.683Z,80.88
2018-06-25T06:48:04.937Z,80.44
2018-06-25T06:52:57.899Z,80.75
2018-06-25T06:57:50.997Z,80.77
2018-06-25T07:02:43.924Z,80.94
2018-06-25T07:07:36.893Z,80.53
2018-06-25T07:12:29.928Z,80.68
2018-06-25T07:17:23.111Z,81.09
2018-06-25T07:22:16.153Z,80.26
2018-06-25T07:27:09.321Z,80.30
2018-06-25T07:32:02.351Z,80.94
2018-06-25T07:36:55.391Z,81.01
2018-06-25T07:41:48.574Z,80.40
2018-06-25T07:46:41.757Z,80.48
2018-06-25T07:51:34.913Z,80.48
2018-06-25T07:56:28.032Z,80.34
2018-06-25T08:01:21.257Z,79.64
2018-06-25T08:06:14.359Z,80.03
2018-06-25T08:11:07.438Z,79.58
2018-06-25T08:16:00.603Z,78.37
2018-06-25T08:20:53.780Z,77.90
2018-06-25T08:25:46.754Z,77.17
2018-06-25T08:30:39.737Z,75.78
2018-06-25T08:35:32.760Z,75.67
2018-06-25T08:40:25.899Z,75.63
2018-06-25T08:45:18.956Z,74.45
2018-06-25T08:50:12.062Z,74.06
2018-06-25T08:55:05.277Z,73.19
2018-06-25T08:59:58.383Z,73.31
2018-06-25T09:04:51.439Z,71.55
2018-06-25T09:09:44.575Z,71.38
2018-06-25T09:14:37.711Z,71.69
2018-06-25T09:19:30.728Z,70.19
2018-06-25T09:24:23.816Z,70.94
2018-06-25T09:29:16.744Z,71.00
2018-06-25T09:34:15.384Z,69.75
2018-06-25T09:39:10.389Z,70.34
2018-06-25T09:44:03.570Z,69.36
2018-06-25T09:48:56.672Z,68.03
2018-06-25T09:53:49.566Z,69.04
2018-06-25T09:58:42.479Z,68.20
2018-06-25T10:03:35.505Z,67.29
2018-06-25T10:08:28.406Z,67.63
2018-06-25T10:13:21.520Z,67.36
2018-06-25T10:18:14.530Z,68.07
2018-06-25T10:23:07.565Z,65.03
2018-06-25T10:28:00.589Z,64.94
2018-06-25T10:32:53.583Z,64.14
2018-06-25T10:37:46.625Z,64.75
2018-06-25T10:42:39.670Z,64.88
2018-06-25T10:47:32.653Z,63.98
2018-06-25T10:52:25.808Z,62.48
2018-06-25T10:57:18.897Z,60.46
2018-06-25T11:02:11.989Z,60.82
2018-06-25T11:07:05.032Z,61.46
2018-06-25T11:11:58.067Z,59.87
2018-06-25T11:16:51.433Z,57.29
2018-06-25T11:21:44.460Z,59.07
2018-06-25T11:26:37.764Z,58.36
2018-06-25T11:31:30.801Z,58.22
2018-06-25T11:36:23.742Z,59.17
2018-06-25T11:41:16.798Z,55.77
2018-06-25T11:46:09.801Z,56.96
2018-06-25T11:51:02.829Z,54.42
2018-06-25T11:55:55.864Z,54.22
2018-06-25T12:00:48.916Z,55.91
2018-06-25T12:05:41.960Z,54.48
2018-06-25T12:10:35.073Z,53.80
2018-06-25T12:15:28.095Z,53.89
2018-06-25T12:20:21.183Z,54.79
2018-06-25T12:25:14.460Z,52.07
2018-06-25T12:30:07.704Z,53.04
2018-06-25T12:35:01.559Z,52.27
2018-06-25T12:39:54.811Z,53.08
2018-06-25T12:44:47.804Z,52.47
2018-06-25T12:49:40.953Z,53.32
2018-06-25T12:54:34.604Z,52.70
2018-06-25T12:59:27.706Z,52.01
2018-06-25T13:04:21.168Z,52.85
2018-06-25T13:09:14.346Z,52.30
2018-06-25T13:14:08.125Z,52.76
2018-06-25T13:19:01.391Z,52.36
2018-06-25T13:23:54.394Z,50.13
2018-06-25T13:28:47.399Z,51.74
2018-06-25T13:33:40.577Z,51.48
2018-06-25T13:38:33.629Z,51.23
2018-06-25T13:43:26.725Z,51.32
2018-06-25T13:48:19.883Z,51.47
2018-06-25T13:53:13.041Z,50.47
2018-06-25T13:58:06.260Z,50.59
2018-06-25T14:02:59.313Z,49.90
2018-06-25T14:07:52.639Z,50.19
2018-06-25T14:12:45.637Z,50.39
2018-06-25T14:17:38.803Z,49.71
2018-06-25T14:22:31.838Z,49.31
2018-06-25T14:27:24.804Z,49.38
2018-06-25T14:32:23.441Z,49.30
2018-06-25T14:37:16.411Z,48.80
2018-06-25T14:42:09.401Z,49.19
2018-06-25T14:47:02.383Z,49.69
2018-06-25T14:51:55.350Z,49.89
2018-06-25T14:56:48.347Z,50.42
2018-06-25T15:01:41.376Z,50.14
2018-06-25T15:06:34.401Z,49.86
2018-06-25T15:11:27.444Z,50.19
2018-06-25T15:16:20.544Z,50.33
2018-06-25T15:21:13.604Z,49.16
2018-06-25T15:26:06.757Z,50.35
2018-06-25T15:30:59.903Z,50.12
2018-06-25T15:35:53.022Z,50.73
2018-06-25T15:40:46.094Z,50.27
2018-06-25T15:45:39.137Z,50.96
2018-06-25T15:50:32.157Z,50.64
2018-06-25T15:55:25.347Z,50.77
2018-06-25T16:00:18.349Z,51.26
2018-06-25T16:05:11.404Z,50.46
2018-06-25T16:10:04.632Z,51.29
2018-06-25T16:14:57.589Z,50.96
2018-06-25T16:19:50.737Z,50.86
2018-06-25T16:24:43.734Z,51.34
2018-06-25T16:29:36.871Z,51.09
2018-06-25T16:34:30.077Z,50.90
2018-06-25T16:39:23.173Z,50.85
2018-06-25T16:44:16.143Z,50.42
2018-06-25T16:49:09.172Z,50.19
2018-06-25T16:54:02.283Z,51.12
2018-06-25T16:58:55.284Z,50.46
2018-06-25T17:03:48.508Z,50.39
2018-06-25T17:08:41.596Z,50.02
2018-06-25T17:13:34.669Z,50.29
2018-06-25T17:18:27.743Z,50.91
2018-06-25T17:23:20.862Z,50.87
2018-06-25T17:28:13.936Z,51.02
2018-06-25T17:33:06.930Z,50.51
2018-06-25T17:38:00.130Z,50.59
2018-06-25T17:42:53.260Z,51.15
2018-06-25T17:47:46.306Z,51.50
2018-06-25T17:52:39.483Z,51.84
2018-06-25T17:57:32.870Z,52.22
2018-06-25T18:02:26.013Z,51.66
2018-06-25T18:07:19.074Z,52.42
2018-06-25T18:12:12.182Z,52.23
2018-06-25T18:17:05.256Z,52.65
2018-06-25T18:21:58.664Z,52.88
2018-06-25T18:26:51.790Z,52.96
2018-06-25T18:31:45.110Z,52.88
2018-06-25T18:36:38.111Z,53.32
2018-06-25T18:41:31.063Z,53.20
2018-06-25T18:46:24.431Z,54.04
2018-06-25T18:51:17.537Z,53.49
2018-06-25T18:56:10.851Z,54.69
2018-06-25T19:01:03.801Z,54.93
2018-06-25T19:05:56.990Z,54.28
2018-06-25T19:10:50.929Z,54.58
2018-06-25T19:15:44.169Z,55.07
2018-06-25T19:20:37.485Z,55.71
2018-06-25T19:25:30.951Z,55.93
2018-06-25T19:30:24.095Z,56.33
2018-06-25T19:35:17.270Z,56.87
2018-06-25T19:40:10.388Z,55.89
2018-06-25T19:45:03.949Z,56.68
2018-06-25T19:49:57.115Z,56.61
2018-06-25T19:54:50.243Z,56.85
2018-06-25T19:59:43.485Z,57.57
2018-06-25T20:04:36.473Z,57.92
2018-06-25T20:09:29.520Z,58.04
2018-06-25T20:14:22.549Z,57.96
2018-06-25T20:19:15.875Z,58.20
2018-06-25T20:24:09.167Z,58.86
2018-06-25T20:29:02.233Z,59.11
2018-06-25T20:33:55.432Z,59.83
2018-06-25T20:38:48.410Z,59.96
2018-06-25T20:43:41.431Z,60.54
2018-06-25T20:48:34.584Z,59.89
2018-06-25T20:53:27.580Z,60.37
2018-06-25T20:58:20.590Z,61.14
2018-06-25T21:03:13.568Z,61.12
2018-06-25T21:08:06.625Z,61.77
2018-06-25T21:12:59.727Z,61.96
2018-06-25T21:17:52.802Z,61.59
2018-06-25T21:22:45.877Z,61.84
2018-06-25T21:27:38.865Z,62.62
2018-06-25T21:32:32.021Z,62.11
2018-06-25T21:37:25.057Z,62.39
2018-06-25T21:42:18.026Z,63.21
2018-06-25T21:47:11.296Z,62.92
2018-06-25T21:52:04.381Z,62.69
2018-06-25T21:56:57.358Z,63.57
2018-06-25T22:01:52.485Z,63.80
2018-06-25T22:06:45.409Z,63.75
2018-06-25T22:11:38.421Z,63.96
2018-06-25T22:16:31.526Z,64.37
2018-06-25T22:21:25.324Z,64.65
2018-06-25T22:26:18.358Z,64.23
2018-06-25T22:31:11.393Z,64.52
2018-06-25T22:36:04.524Z,65.05
2018-06-25T22:40:57.604Z,64.99
2018-06-25T22:45:51.022Z,65.07
2018-06-25T22:50:44.021Z,65.85
2018-06-25T22:55:37.042Z,65.85
2018-06-25T23:00:30.438Z,65.93
2018-06-25T23:05:23.552Z,66.12
2018-06-25T23:10:16.554Z,65.50
2018-06-25T23:15:09.627Z,66.16
2018-06-25T23:20:02.749Z,66.11
2018-06-25T23:24:55.831Z,66.48
2018-06-25T23:29:48.856Z,66.55
2018-06-25T23:34:41.872Z,66.30
2018-06-25T23:39:34.911Z,66.42
2018-06-25T23:44:27.876Z,66.73
2018-06-25T23:49:20.982Z,66.59
2018-06-25T23:54:13.947Z,66.71
2018-06-25T23:59:07.022Z,66.59
